Time,TemperatureF,DewpointF,PressureIn,WindDirection,WindDirectionDegrees,WindSpeedMPH,WindSpeedGustMPH,Humidity,HourlyPrecipIn,Conditions,Clouds,dailyrainin,SolarRadiationWatts/m^2,SoftwareType,DateUTC
2013-04-13 00:02:00,33.0,29.0,-100.00,WSW,250,5.0,9.0,86,0.00,,,0.08,0.000000,,2013-04-13 05:02:00,
2013-04-13 00:12:00,33.0,29.0,-100.00,WSW,242,5.0,9.0,85,0.00,,,0.07,0.000000,,2013-04-13 05:12:00,
2013-04-13 00:32:00,33.0,29.0,-100.00,WSW,242,5.0,9.0,85,0.00,,,0.07,0.000000,,2013-04-13 05:32:00,
2013-04-13 00:43:00,33.0,29.0,-100.00,WSW,242,5.0,9.0,85,0.00,,,0.07,0.000000,,2013-04-13 05:43:00,
2013-04-13 00:52:00,33.0,29.0,-100.00,WSW,242,5.0,9.0,85,0.00,,,0.07,0.000000,,2013-04-13 05:52:00,
2013-04-13 01:02:00,33.0,29.0,-100.00,WSW,242,5.0,9.0,85,0.00,,,0.07,0.000000,,2013-04-13 06:02:00,
2013-04-13 01:12:00,32.0,29.0,-100.00,WSW,240,4.0,10.0,90,0.00,,,0.07,0.000000,,2013-04-13 06:12:00,
2013-04-13 01:36:00,32.0,29.0,-100.00,WSW,240,4.0,10.0,90,0.00,,,0.07,0.000000,,2013-04-13 06:36:00,
2013-04-13 01:49:00,32.0,29.0,-100.00,WSW,240,4.0,10.0,90,0.00,,,0.07,0.000000,,2013-04-13 06:49:00,
2013-04-13 01:55:00,32.0,29.0,-100.00,WSW,240,4.0,10.0,90,0.00,,,0.07,0.000000,,2013-04-13 06:55:00,
2013-04-13 02:05:00,32.0,29.0,-100.00,WSW,240,4.0,10.0,90,0.00,,,0.07,0.000000,,2013-04-13 07:05:00,
2013-04-13 02:12:00,32.0,30.0,-100.00,SW,234,4.0,8.0,91,0.00,,,0.06,0.000000,,2013-04-13 07:12:00,
2013-04-13 02:35:00,32.0,30.0,-100.00,SW,234,4.0,8.0,91,0.00,,,0.06,0.000000,,2013-04-13 07:35:00,
2013-04-13 02:45:00,32.0,30.0,-100.00,SW,234,4.0,8.0,91,0.00,,,0.06,0.000000,,2013-04-13 07:45:00,
2013-04-13 02:56:00,32.0,30.0,-100.00,SW,234,4.0,8.0,91,0.00,,,0.06,0.000000,,2013-04-13 07:56:00,
2013-04-13 03:06:00,32.0,30.0,-100.00,SW,234,4.0,8.0,91,0.00,,,0.06,0.000000,,2013-04-13 08:06:00,
2013-04-13 03:12:00,32.0,29.0,-100.00,WSW,241,6.0,10.0,88,0.00,,,0.06,0.000000,,2013-04-13 08:12:00,
2013-04-13 03:54:00,32.0,29.0,-100.00,WSW,241,6.0,10.0,88,0.00,,,0.06,0.000000,,2013-04-13 08:54:00,
2013-04-13 04:05:00,32.0,29.0,-100.00,WSW,241,6.0,10.0,88,0.00,,,0.06,0.000000,,2013-04-13 09:05:00,
2013-04-13 04:12:00,31.0,29.0,-100.00,West,260,5.0,10.0,91,0.00,,,0.05,0.000000,,2013-04-13 09:12:00,
2013-04-13 04:53:00,31.0,29.0,-100.00,West,260,5.0,10.0,91,0.00,,,0.05,0.000000,,2013-04-13 09:53:00,
2013-04-13 05:05:00,31.0,29.0,-100.00,West,260,5.0,10.0,91,0.00,,,0.05,0.000000,,2013-04-13 10:05:00,
2013-04-13 05:12:00,31.0,26.0,-100.00,WNW,295,9.0,13.0,83,0.00,,,0.04,0.000000,,2013-04-13 10:12:00,
2013-04-13 05:38:00,31.0,26.0,-100.00,WNW,295,9.0,13.0,83,0.00,,,0.04,0.000000,,2013-04-13 10:38:00,
2013-04-13 05:50:00,31.0,26.0,-100.00,WNW,295,9.0,13.0,83,0.00,,,0.04,0.000000,,2013-04-13 10:50:00,
2013-04-13 06:06:00,31.0,26.0,-100.00,WNW,295,9.0,13.0,83,0.00,,,0.04,0.000000,,2013-04-13 11:06:00,
2013-04-13 06:12:00,30.0,25.0,-100.00,WNW,295,9.0,17.0,83,0.00,,,0.03,0.000000,,2013-04-13 11:12:00,
2013-04-13 06:35:00,30.0,25.0,-100.00,WNW,295,9.0,17.0,83,0.00,,,0.03,0.000000,,2013-04-13 11:35:00,
2013-04-13 06:46:00,30.0,25.0,-100.00,WNW,295,9.0,17.0,83,0.00,,,0.03,0.000000,,2013-04-13 11:46:00,
2013-04-13 06:54:00,30.0,25.0,-100.00,WNW,295,9.0,17.0,83,0.00,,,0.03,0.000000,,2013-04-13 11:54:00,
2013-04-13 07:12:00,29.0,24.0,-100.00,WNW,291,8.0,15.0,80,0.00,,,0.02,26.000000,,2013-04-13 12:12:00,
2013-04-13 07:37:00,29.0,24.0,-100.00,WNW,291,8.0,15.0,80,0.00,,,0.02,26.000000,,2013-04-13 12:37:00,
2013-04-13 07:49:00,29.0,24.0,-100.00,WNW,291,8.0,15.0,80,0.00,,,0.02,26.000000,,2013-04-13 12:49:00,
2013-04-13 07:55:00,29.0,24.0,-100.00,WNW,291,8.0,15.0,80,0.00,,,0.02,26.000000,,2013-04-13 12:55:00,
2013-04-13 08:05:00,29.0,24.0,-100.00,WNW,291,8.0,15.0,80,0.00,,,0.02,26.000000,,2013-04-13 13:05:00,
2013-04-13 08:12:00,30.0,23.0,-100.00,WNW,293,10.0,16.0,76,0.00,,,0.02,119.000000,,2013-04-13 13:12:00,
2013-04-13 08:36:00,30.0,23.0,-100.00,WNW,293,10.0,16.0,76,0.00,,,0.02,119.000000,,2013-04-13 13:36:00,
2013-04-13 08:49:00,30.0,23.0,-100.00,WNW,293,10.0,16.0,76,0.00,,,0.02,119.000000,,2013-04-13 13:49:00,
2013-04-13 08:56:00,30.0,23.0,-100.00,WNW,293,10.0,16.0,76,0.00,,,0.02,119.000000,,2013-04-13 13:56:00,
2013-04-13 09:04:00,30.0,23.0,-100.00,WNW,293,10.0,16.0,76,0.00,,,0.02,119.000000,,2013-04-13 14:04:00,
2013-04-13 09:12:00,33.0,24.0,-100.00,WNW,293,10.0,17.0,70,0.00,,,0.01,314.000000,,2013-04-13 14:12:00,
2013-04-13 09:48:00,33.0,24.0,-100.00,WNW,293,10.0,17.0,70,0.00,,,0.01,314.000000,,2013-04-13 14:48:00,
2013-04-13 09:59:00,33.0,24.0,-100.00,WNW,293,10.0,17.0,70,0.00,,,0.01,314.000000,,2013-04-13 14:59:00,
2013-04-13 10:04:00,33.0,24.0,-100.00,WNW,293,10.0,17.0,70,0.00,,,0.01,314.000000,,2013-04-13 15:04:00,
2013-04-13 10:45:00,34.0,23.0,-100.00,WNW,301,10.0,19.0,65,0.00,,,0.01,433.000000,,2013-04-13 15:45:00,
2013-04-13 10:58:00,34.0,23.0,-100.00,WNW,301,10.0,19.0,65,0.00,,,0.01,433.000000,,2013-04-13 15:58:00,
2013-04-13 11:06:00,34.0,23.0,-100.00,WNW,301,10.0,19.0,65,0.00,,,0.01,433.000000,,2013-04-13 16:06:00,
2013-04-13 11:12:00,34.0,22.0,-100.00,West,278,11.0,19.0,60,0.00,,,0.01,362.000000,,2013-04-13 16:12:00,
2013-04-13 11:37:00,34.0,22.0,-100.00,West,278,11.0,19.0,60,0.00,,,0.01,362.000000,,2013-04-13 16:37:00,
2013-04-13 11:48:00,34.0,22.0,-100.00,West,278,11.0,19.0,60,0.00,,,0.01,362.000000,,2013-04-13 16:48:00,
2013-04-13 11:56:00,34.0,22.0,-100.00,West,278,11.0,19.0,60,0.00,,,0.01,362.000000,,2013-04-13 16:56:00,
2013-04-13 12:06:00,34.0,22.0,-100.00,West,278,11.0,19.0,60,0.00,,,0.01,362.000000,,2013-04-13 17:06:00,
2013-04-13 12:12:00,36.0,22.0,-100.00,West,267,11.0,20.0,57,0.00,,,0.01,547.000000,,2013-04-13 17:12:00,
2013-04-13 12:45:00,36.0,22.0,-100.00,West,267,11.0,20.0,57,0.00,,,0.01,547.000000,,2013-04-13 17:45:00,
2013-04-13 13:04:00,36.0,22.0,-100.00,West,267,11.0,20.0,57,0.00,,,0.01,547.000000,,2013-04-13 18:04:00,
2013-04-13 13:12:00,36.0,23.0,-100.00,West,271,11.0,20.0,58,0.00,,,0.01,360.000000,,2013-04-13 18:12:00,
2013-04-13 13:33:00,36.0,23.0,-100.00,West,271,11.0,20.0,58,0.00,,,0.01,360.000000,,2013-04-13 18:33:00,
2013-04-13 13:42:00,36.0,23.0,-100.00,West,271,11.0,20.0,58,0.00,,,0.01,360.000000,,2013-04-13 18:42:00,
2013-04-13 13:53:00,36.0,23.0,-100.00,West,271,11.0,20.0,58,0.00,,,0.01,360.000000,,2013-04-13 18:53:00,
2013-04-13 14:03:00,36.0,23.0,-100.00,West,271,11.0,20.0,58,0.00,,,0.01,360.000000,,2013-04-13 19:03:00,
2013-04-13 14:12:00,36.0,23.0,-100.00,West,267,12.0,21.0,58,0.00,,,0.01,251.000000,,2013-04-13 19:12:00,
2013-04-13 14:42:00,36.0,23.0,-100.00,West,267,12.0,21.0,58,0.00,,,0.01,251.000000,,2013-04-13 19:42:00,
2013-04-13 14:53:00,36.0,23.0,-100.00,West,267,12.0,21.0,58,0.00,,,0.01,251.000000,,2013-04-13 19:53:00,
2013-04-13 15:02:00,36.0,23.0,-100.00,West,267,12.0,21.0,58,0.00,,,0.01,251.000000,,2013-04-13 20:02:00,
2013-04-13 15:12:00,37.0,29.0,-100.00,West,264,10.0,18.0,73,0.00,,,0.01,307.000000,,2013-04-13 20:12:00,
2013-04-13 15:32:00,37.0,29.0,-100.00,West,264,10.0,18.0,73,0.00,,,0.01,307.000000,,2013-04-13 20:32:00,
2013-04-13 15:42:00,37.0,29.0,-100.00,West,264,10.0,18.0,73,0.00,,,0.01,307.000000,,2013-04-13 20:42:00,
2013-04-13 15:52:00,37.0,29.0,-100.00,West,264,10.0,18.0,73,0.00,,,0.01,307.000000,,2013-04-13 20:52:00,
2013-04-13 16:02:00,37.0,29.0,-100.00,West,264,10.0,18.0,73,0.00,,,0.01,307.000000,,2013-04-13 21:02:00,
2013-04-13 16:12:00,36.0,25.0,-100.00,West,279,9.0,17.0,64,0.00,,,0.01,222.000000,,2013-04-13 21:12:00,
2013-04-13 16:33:00,36.0,25.0,-100.00,West,279,9.0,17.0,64,0.00,,,0.01,222.000000,,2013-04-13 21:33:00,
2013-04-13 16:43:00,36.0,25.0,-100.00,West,279,9.0,17.0,64,0.00,,,0.01,222.000000,,2013-04-13 21:43:00,
2013-04-13 16:53:00,36.0,25.0,-100.00,West,279,9.0,17.0,64,0.00,,,0.01,222.000000,,2013-04-13 21:53:00,
2013-04-13 17:03:00,36.0,25.0,-100.00,West,279,9.0,17.0,64,0.00,,,0.01,222.000000,,2013-04-13 22:03:00,
2013-04-13 17:12:00,36.0,26.0,-100.00,WSW,257,8.0,15.0,67,0.00,,,0.01,135.000000,,2013-04-13 22:12:00,
2013-04-13 17:33:00,36.0,26.0,-100.00,WSW,257,8.0,15.0,67,0.00,,,0.01,135.000000,,2013-04-13 22:33:00,
2013-04-13 17:42:00,36.0,26.0,-100.00,WSW,257,8.0,15.0,67,0.00,,,0.01,135.000000,,2013-04-13 22:42:00,
2013-04-13 17:53:00,36.0,26.0,-100.00,WSW,257,8.0,15.0,67,0.00,,,0.01,135.000000,,2013-04-13 22:53:00,
2013-04-13 18:02:00,36.0,26.0,-100.00,WSW,257,8.0,15.0,67,0.00,,,0.01,135.000000,,2013-04-13 23:02:00,
2013-04-13 18:12:00,36.0,26.0,-100.00,WNW,286,6.0,14.0,66,0.00,,,0.01,61.000000,,2013-04-13 23:12:00,
2013-04-13 18:33:00,36.0,26.0,-100.00,WNW,286,6.0,14.0,66,0.00,,,0.01,61.000000,,2013-04-13 23:33:00,
2013-04-13 18:43:00,36.0,26.0,-100.00,WNW,286,6.0,14.0,66,0.00,,,0.01,61.000000,,2013-04-13 23:43:00,
2013-04-13 18:53:00,36.0,26.0,-100.00,WNW,286,6.0,14.0,66,0.00,,,0.01,61.000000,,2013-04-13 23:53:00,
2013-04-13 19:02:00,36.0,26.0,-100.00,WNW,286,6.0,14.0,66,0.00,,,0.01,61.000000,,2013-04-14 00:02:00,
2013-04-13 20:12:00,34.0,26.0,-100.00,West,281,3.0,9.0,72,-99.99,,,0.00,3.000000,,2013-04-14 01:12:00,
2013-04-13 20:42:00,34.0,26.0,-100.00,West,281,3.0,9.0,72,-99.99,,,0.00,3.000000,,2013-04-14 01:42:00,
2013-04-13 20:53:00,34.0,26.0,-100.00,West,281,3.0,9.0,72,-99.99,,,0.00,3.000000,,2013-04-14 01:53:00,
2013-04-13 21:02:00,34.0,26.0,-100.00,West,281,3.0,9.0,72,-99.99,,,0.00,3.000000,,2013-04-14 02:02:00,
2013-04-13 21:12:00,33.0,27.0,-100.00,NNW,331,3.0,7.0,79,0.00,,,0.00,0.000000,,2013-04-14 02:12:00,
2013-04-13 21:33:00,33.0,27.0,-100.00,NNW,331,3.0,7.0,79,0.00,,,0.00,0.000000,,2013-04-14 02:33:00,
2013-04-13 21:43:00,33.0,27.0,-100.00,NNW,331,3.0,7.0,79,0.00,,,0.00,0.000000,,2013-04-14 02:43:00,
2013-04-13 21:53:00,33.0,27.0,-100.00,NNW,331,3.0,7.0,79,0.00,,,0.00,0.000000,,2013-04-14 02:53:00,
2013-04-13 22:02:00,33.0,27.0,-100.00,NNW,331,3.0,7.0,79,0.00,,,0.00,0.000000,,2013-04-14 03:02:00,
2013-04-13 22:12:00,32.0,26.0,-100.00,West,273,0.0,5.0,79,0.00,,,0.00,0.000000,,2013-04-14 03:12:00,
2013-04-13 22:43:00,32.0,26.0,-100.00,West,273,0.0,5.0,79,0.00,,,0.00,0.000000,,2013-04-14 03:43:00,
2013-04-13 22:53:00,32.0,26.0,-100.00,West,273,0.0,5.0,79,0.00,,,0.00,0.000000,,2013-04-14 03:53:00,
2013-04-13 23:02:00,32.0,26.0,-100.00,West,273,0.0,5.0,79,0.00,,,0.00,0.000000,,2013-04-14 04:02:00,
2013-04-13 23:12:00,31.0,27.0,-100.00,NNE,25,0.0,0.0,84,0.00,,,0.00,0.000000,,2013-04-14 04:12:00,
2013-04-13 23:33:00,31.0,27.0,-100.00,NNE,25,0.0,0.0,84,0.00,,,0.00,0.000000,,2013-04-14 04:33:00,
2013-04-13 23:43:00,31.0,27.0,-100.00,NNE,25,0.0,0.0,84,0.00,,,0.00,0.000000,,2013-04-14 04:43:00,
2013-04-13 23:52:00,31.0,27.0,-100.00,NNE,25,0.0,0.0,84,0.00,,,0.00,0.000000,,2013-04-14 04:52:00,